sensor_id;sensor_type;location;lat;lon;timestamp;pressure;altitude;pressure_sealevel;temperature;humidity
64544;BME280;50936;51.660;5.616;2023-04-24T00:01:59;99610.69;;;9.58;100.00
64544;BME280;50936;51.660;5.616;2023-04-24T00:04:26;99608.97;;;9.57;100.00
64544;BME280;50936;51.660;5.616;2023-04-24T00:06:53;99605.53;;;9.55;100.00
64544;BME280;50936;51.660;5.616;2023-04-24T00:09:23;99605.78;;;9.52;100.00
64544;BME280;50936;51.660;5.616;2023-04-24T00:11:50;99606.06;;;9.49;100.00
64544;BME280;50936;51.660;5.616;2023-04-24T00:14:17;99606.31;;;9.46;100.00
64544;BME280;50936;51.660;5.616;2023-04-24T00:16:44;99610.59;;;9.49;100.00
64544;BME280;50936;51.660;5.616;2023-04-24T00:19:11;99609.50;;;9.51;100.00
64544;BME280;50936;51.660;5.616;2023-04-24T00:21:39;99612.91;;;9.53;100.00
64544;BME280;50936;51.660;5.616;2023-04-24T00:24:07;99611.19;;;9.52;100.00
64544;BME280;50936;51.660;5.616;2023-04-24T00:26:37;99618.91;;;9.57;100.00
64544;BME280;50936;51.660;5.616;2023-04-24T00:29:04;99618.66;;;9.60;100.00
64544;BME280;50936;51.660;5.616;2023-04-24T00:31:31;99610.69;;;9.58;100.00
64544;BME280;50936;51.660;5.616;2023-04-24T00:34:02;99616.91;;;9.59;100.00
64544;BME280;50936;51.660;5.616;2023-04-24T00:36:29;99630.53;;;9.57;100.00
64544;BME280;50936;51.660;5.616;2023-04-24T00:38:57;99636.19;;;9.54;100.00
64544;BME280;50936;51.660;5.616;2023-04-24T00:41:24;99623.69;;;9.53;100.00
64544;BME280;50936;51.660;5.616;2023-04-24T00:43:52;99623.69;;;9.53;100.00
64544;BME280;50936;51.660;5.616;2023-04-24T00:46:20;99635.31;;;9.54;100.00
64544;BME280;50936;51.660;5.616;2023-04-24T00:48:47;99631.78;;;9.53;100.00
64544;BME280;50936;51.660;5.616;2023-04-24T00:51:14;99623.94;;;9.50;100.00
64544;BME280;50936;51.660;5.616;2023-04-24T00:53:42;99632.03;;;9.50;100.00
64544;BME280;50936;51.660;5.616;2023-04-24T00:56:09;99633.28;;;9.46;100.00
64544;BME280;50936;51.660;5.616;2023-04-24T00:58:36;99636.03;;;9.35;100.00
64544;BME280;50936;51.660;5.616;2023-04-24T01:01:03;99635.06;;;9.24;100.00
64544;BME280;50936;51.660;5.616;2023-04-24T01:03:34;99631.16;;;9.17;100.00
64544;BME280;50936;51.660;5.616;2023-04-24T01:06:05;99630.13;;;9.09;100.00
64544;BME280;50936;51.660;5.616;2023-04-24T01:08:32;99635.03;;;9.03;100.00
64544;BME280;50936;51.660;5.616;2023-04-24T01:11:03;99620.81;;;9.01;100.00
64544;BME280;50936;51.660;5.616;2023-04-24T01:13:32;99628.03;;;9.01;100.00
64544;BME280;50936;51.660;5.616;2023-04-24T01:16:00;99626.34;;;9.00;100.00
64544;BME280;50936;51.660;5.616;2023-04-24T01:18:28;99617.53;;;8.98;100.00
64544;BME280;50936;51.660;5.616;2023-04-24T01:20:59;99621.19;;;8.97;100.00
64544;BME280;50936;51.660;5.616;2023-04-24T01:23:30;99620.34;;;8.96;100.00
64544;BME280;50936;51.660;5.616;2023-04-24T01:25:57;99625.97;;;8.93;100.00
64544;BME280;50936;51.660;5.616;2023-04-24T01:28:25;99621.59;;;8.92;100.00
64544;BME280;50936;51.660;5.616;2023-04-24T01:30:52;99627.94;;;8.91;100.00
64544;BME280;50936;51.660;5.616;2023-04-24T01:33:22;99624.53;;;8.89;100.00
64544;BME280;50936;51.660;5.616;2023-04-24T01:35:49;99629.31;;;8.85;100.00
64544;BME280;50936;51.660;5.616;2023-04-24T01:38:17;99623.31;;;8.82;100.00
64544;BME280;50936;51.660;5.616;2023-04-24T01:40:43;99619.28;;;8.76;100.00
64544;BME280;50936;51.660;5.616;2023-04-24T01:43:12;99617.81;;;8.72;100.00
64544;BME280;50936;51.660;5.616;2023-04-24T01:45:39;99621.59;;;8.70;100.00
64544;BME280;50936;51.660;5.616;2023-04-24T01:48:06;99622.72;;;8.67;100.00
64544;BME280;50936;51.660;5.616;2023-04-24T01:50:33;99624.81;;;8.63;100.00
64544;BME280;50936;51.660;5.616;2023-04-24T01:53:00;99623.22;;;8.61;100.00
64544;BME280;50936;51.660;5.616;2023-04-24T01:55:30;99627.84;;;8.59;100.00
64544;BME280;50936;51.660;5.616;2023-04-24T01:57:59;99631.66;;;8.56;100.00
64544;BME280;50936;51.660;5.616;2023-04-24T02:00:26;99611.97;;;8.56;100.00
64544;BME280;50936;51.660;5.616;2023-04-24T02:02:53;99638.16;;;8.54;100.00
64544;BME280;50936;51.660;5.616;2023-04-24T02:05:20;99634.69;;;8.52;100.00
64544;BME280;50936;51.660;5.616;2023-04-24T02:07:47;99628.59;;;8.50;100.00
64544;BME280;50936;51.660;5.616;2023-04-24T02:10:14;99626.91;;;8.48;100.00
64544;BME280;50936;51.660;5.616;2023-04-24T02:12:41;99616.13;;;8.48;100.00
64544;BME280;50936;51.660;5.616;2023-04-24T02:15:08;99617.84;;;8.50;100.00
64544;BME280;50936;51.660;5.616;2023-04-24T02:17:36;99621.53;;;8.48;100.00
64544;BME280;50936;51.660;5.616;2023-04-24T02:20:05;99631.44;;;8.48;100.00
64544;BME280;50936;51.660;5.616;2023-04-24T02:22:33;99616.97;;;8.49;100.00
64544;BME280;50936;51.660;5.616;2023-04-24T02:25:01;99632.53;;;8.45;100.00
64544;BME280;50936;51.660;5.616;2023-04-24T02:27:28;99621.75;;;8.45;100.00
64544;BME280;50936;51.660;5.616;2023-04-24T02:29:56;99623.72;;;8.43;100.00
64544;BME280;50936;51.660;5.616;2023-04-24T02:32:22;99630.94;;;8.43;100.00
64544;BME280;50936;51.660;5.616;2023-04-24T02:34:49;99634.69;;;8.40;100.00
64544;BME280;50936;51.660;5.616;2023-04-24T02:37:16;99638.38;;;8.39;100.00
64544;BME280;50936;51.660;5.616;2023-04-24T02:39:43;99636.91;;;8.35;100.00
64544;BME280;50936;51.660;5.616;2023-04-24T02:42:10;99629.81;;;8.34;100.00
64544;BME280;50936;51.660;5.616;2023-04-24T02:44:37;99629.81;;;8.34;100.00
64544;BME280;50936;51.660;5.616;2023-04-24T02:47:04;99637.13;;;8.32;100.00
64544;BME280;50936;51.660;5.616;2023-04-24T02:49:31;99627.34;;;8.31;100.00
64544;BME280;50936;51.660;5.616;2023-04-24T02:51:58;99634.69;;;8.29;100.00
64544;BME280;50936;51.660;5.616;2023-04-24T02:54:25;99622.97;;;8.30;100.00
64544;BME280;50936;51.660;5.616;2023-04-24T02:56:52;99633.72;;;8.30;100.00
64544;BME280;50936;51.660;5.616;2023-04-24T02:59:19;99633.72;;;8.30;100.00
64544;BME280;50936;51.660;5.616;2023-04-24T03:01:45;99628.34;;;8.30;100.00
64544;BME280;50936;51.660;5.616;2023-04-24T03:04:12;99626.63;;;8.29;100.00
64544;BME280;50936;51.660;5.616;2023-04-24T03:06:40;99629.19;;;8.31;100.00
64544;BME280;50936;51.660;5.616;2023-04-24T03:09:07;99630.03;;;8.31;100.00
64544;BME280;50936;51.660;5.616;2023-04-24T03:11:34;99625.53;;;8.32;100.00
64544;BME280;50936;51.660;5.616;2023-04-24T03:14:00;99629.06;;;8.32;100.00
64544;BME280;50936;51.660;5.616;2023-04-24T03:16:27;99627.84;;;8.36;100.00
64544;BME280;50936;51.660;5.616;2023-04-24T03:18:54;99622.22;;;8.39;100.00
64544;BME280;50936;51.660;5.616;2023-04-24T03:21:24;99628.34;;;8.41;100.00
64544;BME280;50936;51.660;5.616;2023-04-24T03:23:51;99622.00;;;8.42;100.00
64544;BME280;50936;51.660;5.616;2023-04-24T03:26:18;99632.53;;;8.45;100.00
64544;BME280;50936;51.660;5.616;2023-04-24T03:28:59;99625.91;;;8.50;100.00
64544;BME280;50936;51.660;5.616;2023-04-24T03:31:26;99632.16;;;8.50;100.00
64544;BME280;50936;51.660;5.616;2023-04-24T03:33:53;99636.56;;;8.51;100.00
64544;BME280;50936;51.660;5.616;2023-04-24T03:36:20;99626.63;;;8.52;100.00
64544;BME280;50936;51.660;5.616;2023-04-24T03:38:47;99622.97;;;8.53;100.00
64544;BME280;50936;51.660;5.616;2023-04-24T03:41:26;99617.59;;;8.53;100.00
64544;BME280;50936;51.660;5.616;2023-04-24T03:44:08;99626.63;;;8.52;100.00
64544;BME280;50936;51.660;5.616;2023-04-24T03:46:36;99617.97;;;8.48;100.00
64544;BME280;50936;51.660;5.616;2023-04-24T03:49:03;99625.44;;;8.44;100.00
64544;BME280;50936;51.660;5.616;2023-04-24T03:51:34;99619.41;;;8.41;100.00
64544;BME280;50936;51.660;5.616;2023-04-24T03:54:16;99625.88;;;8.38;100.00
64544;BME280;50936;51.660;5.616;2023-04-24T03:56:44;99621.63;;;8.36;100.00
64544;BME280;50936;51.660;5.616;2023-04-24T03:59:12;99620.75;;;8.35;100.00
64544;BME280;50936;51.660;5.616;2023-04-24T04:01:43;99620.75;;;8.35;100.00
64544;BME280;50936;51.660;5.616;2023-04-24T04:04:15;99619.28;;;8.31;100.00
64544;BME280;50936;51.660;5.616;2023-04-24T04:06:43;99612.19;;;8.30;100.00
64544;BME280;50936;51.660;5.616;2023-04-24T04:09:11;99615.84;;;8.29;100.00
64544;BME280;50936;51.660;5.616;2023-04-24T04:11:38;99622.09;;;8.29;100.00
64544;BME280;50936;51.660;5.616;2023-04-24T04:14:04;99609.63;;;8.28;100.00
64544;BME280;50936;51.660;5.616;2023-04-24T04:16:33;99624.91;;;8.28;100.00
64544;BME280;50936;51.660;5.616;2023-04-24T04:19:02;99624.78;;;8.29;100.00
64544;BME280;50936;51.660;5.616;2023-04-24T04:21:30;99621.22;;;8.29;100.00
64544;BME280;50936;51.660;5.616;2023-04-24T04:24:22;99612.19;;;8.30;100.00
64544;BME280;50936;51.660;5.616;2023-04-24T04:26:51;99608.78;;;8.28;100.00
64544;BME280;50936;51.660;5.616;2023-04-24T04:29:26;99616.09;;;8.26;100.00
64544;BME280;50936;51.660;5.616;2023-04-24T04:31:53;99610.97;;;8.23;100.00
64544;BME280;50936;51.660;5.616;2023-04-24T04:34:20;99623.69;;;8.21;100.00
64544;BME280;50936;51.660;5.616;2023-04-24T04:36:48;99617.44;;;8.20;100.00
64544;BME280;50936;51.660;5.616;2023-04-24T04:39:47;99619.50;;;8.17;100.00
64544;BME280;50936;51.660;5.616;2023-04-24T04:42:20;99619.66;;;8.15;100.00
64544;BME280;50936;51.660;5.616;2023-04-24T04:44:48;99627.84;;;8.14;100.00
64544;BME280;50936;51.660;5.616;2023-04-24T04:47:21;99632.22;;;8.15;100.00
64544;BME280;50936;51.660;5.616;2023-04-24T04:49:54;99634.91;;;8.15;100.00
64544;BME280;50936;51.660;5.616;2023-04-24T04:52:24;99631.50;;;8.13;100.00
64544;BME280;50936;51.660;5.616;2023-04-24T04:55:18;99636.88;;;8.13;100.00
64544;BME280;50936;51.660;5.616;2023-04-24T04:58:06;99633.44;;;8.10;100.00
64544;BME280;50936;51.660;5.616;2023-04-24T05:00:33;99631.88;;;8.08;100.00
64544;BME280;50936;51.660;5.616;2023-04-24T05:03:09;99637.34;;;8.06;100.00
64544;BME280;50936;51.660;5.616;2023-04-24T05:05:50;99637.59;;;8.03;100.00
64544;BME280;50936;51.660;5.616;2023-04-24T05:08:17;99649.19;;;8.04;100.00
64544;BME280;50936;51.660;5.616;2023-04-24T05:10:54;99655.78;;;8.00;100.00
64544;BME280;50936;51.660;5.616;2023-04-24T05:13:23;99648.84;;;7.97;100.00
64544;BME280;50936;51.660;5.616;2023-04-24T05:16:09;99651.53;;;7.97;100.00
64544;BME280;50936;51.660;5.616;2023-04-24T05:18:37;99654.94;;;7.99;100.00
64544;BME280;50936;51.660;5.616;2023-04-24T05:21:06;99654.22;;;7.97;100.00
64544;BME280;50936;51.660;5.616;2023-04-24T05:23:34;99649.91;;;7.95;100.00
64544;BME280;50936;51.660;5.616;2023-04-24T05:26:01;99662.50;;;7.94;100.00
64544;BME280;50936;51.660;5.616;2023-04-24T05:28:31;99658.13;;;7.93;100.00
64544;BME280;50936;51.660;5.616;2023-04-24T05:31:06;99669.72;;;7.94;100.00
64544;BME280;50936;51.660;5.616;2023-04-24T05:33:33;99675.22;;;7.92;100.00
64544;BME280;50936;51.660;5.616;2023-04-24T05:36:00;99668.88;;;7.93;100.00
64544;BME280;50936;51.660;5.616;2023-04-24T05:38:28;99674.25;;;7.93;100.00
64544;BME280;50936;51.660;5.616;2023-04-24T05:40:55;99682.19;;;7.95;100.00
64544;BME280;50936;51.660;5.616;2023-04-24T05:43:21;99676.78;;;7.95;100.00
64544;BME280;50936;51.660;5.616;2023-04-24T05:45:49;99684.53;;;7.99;100.00
64544;BME280;50936;51.660;5.616;2023-04-24T05:48:17;99686.47;;;7.97;100.00
64544;BME280;50936;51.660;5.616;2023-04-24T05:50:44;99690.97;;;7.97;100.00
64544;BME280;50936;51.660;5.616;2023-04-24T05:53:11;99682.78;;;7.98;100.00
64544;BME280;50936;51.660;5.616;2023-04-24T05:55:38;99698.69;;;8.01;100.00
64544;BME280;50936;51.660;5.616;2023-04-24T05:58:05;99699.91;;;7.97;100.00
64544;BME280;50936;51.660;5.616;2023-04-24T06:00:35;99706.25;;;7.96;100.00
64544;BME280;50936;51.660;5.616;2023-04-24T06:03:06;99704.91;;;7.90;100.00
64544;BME280;50936;51.660;5.616;2023-04-24T06:05:34;99706.97;;;7.87;100.00
64544;BME280;50936;51.660;5.616;2023-04-24T06:08:02;99706.34;;;7.83;100.00
64544;BME280;50936;51.660;5.616;2023-04-24T06:10:33;99708.06;;;7.84;100.00
64544;BME280;50936;51.660;5.616;2023-04-24T06:13:00;99714.28;;;7.85;100.00
64544;BME280;50936;51.660;5.616;2023-04-24T06:15:29;99714.28;;;7.85;100.00
64544;BME280;50936;51.660;5.616;2023-04-24T06:18:09;99709.78;;;7.85;100.00
64544;BME280;50936;51.660;5.616;2023-04-24T06:20:40;99721.16;;;7.89;100.00
64544;BME280;50936;51.660;5.616;2023-04-24T06:23:08;99724.81;;;7.88;100.00
64544;BME280;50936;51.660;5.616;2023-04-24T06:25:35;99731.06;;;7.88;100.00
64544;BME280;50936;51.660;5.616;2023-04-24T06:28:03;99742.66;;;7.89;100.00
64544;BME280;50936;51.660;5.616;2023-04-24T06:30:30;99744.38;;;7.90;100.00
64544;BME280;50936;51.660;5.616;2023-04-24T06:32:57;99757.09;;;7.88;100.00
64544;BME280;50936;51.660;5.616;2023-04-24T06:35:38;99755.56;;;7.84;100.00
64544;BME280;50936;51.660;5.616;2023-04-24T06:38:06;99770.00;;;7.83;100.00
64544;BME280;50936;51.660;5.616;2023-04-24T06:40:32;99772.19;;;7.78;100.00
64544;BME280;50936;51.660;5.616;2023-04-24T06:42:59;99774.34;;;7.72;100.00
64544;BME280;50936;51.660;5.616;2023-04-24T06:45:29;99778.88;;;7.72;100.00
64544;BME280;50936;51.660;5.616;2023-04-24T06:47:56;99792.19;;;7.74;100.00
64544;BME280;50936;51.660;5.616;2023-04-24T06:50:24;99799.06;;;7.78;100.00
64544;BME280;50936;51.660;5.616;2023-04-24T06:52:50;99802.59;;;7.78;100.00
64544;BME280;50936;51.660;5.616;2023-04-24T06:55:17;99807.88;;;7.80;100.00
64544;BME280;50936;51.660;5.616;2023-04-24T06:57:45;99813.88;;;7.83;100.00
64544;BME280;50936;51.660;5.616;2023-04-24T07:00:13;99818.19;;;7.86;100.00
64544;BME280;50936;51.660;5.616;2023-04-24T07:02:40;99826.00;;;7.89;100.00
64544;BME280;50936;51.660;5.616;2023-04-24T07:05:07;99822.25;;;7.92;100.00
64544;BME280;50936;51.660;5.616;2023-04-24T07:07:34;99829.94;;;7.96;100.00
64544;BME280;50936;51.660;5.616;2023-04-24T07:10:05;99822.41;;;8.01;100.00
64544;BME280;50936;51.660;5.616;2023-04-24T07:12:32;99832.19;;;8.02;100.00
64544;BME280;50936;51.660;5.616;2023-04-24T07:15:00;99842.06;;;8.02;100.00
64544;BME280;50936;51.660;5.616;2023-04-24T07:17:27;99852.72;;;8.03;100.00
64544;BME280;50936;51.660;5.616;2023-04-24T07:19:54;99859.81;;;8.04;100.00
64544;BME280;50936;51.660;5.616;2023-04-24T07:22:21;99860.78;;;8.03;100.00
64544;BME280;50936;51.660;5.616;2023-04-24T07:24:48;99878.88;;;8.01;100.00
64544;BME280;50936;51.660;5.616;2023-04-24T07:27:15;99877.28;;;7.99;100.00
64544;BME280;50936;51.660;5.616;2023-04-24T07:29:42;99885.66;;;7.94;100.00
64544;BME280;50936;51.660;5.616;2023-04-24T07:32:10;99902.91;;;7.92;100.00
64544;BME280;50936;51.660;5.616;2023-04-24T07:34:36;99910.44;;;7.86;100.00
64544;BME280;50936;51.660;5.616;2023-04-24T07:37:04;99930.31;;;7.84;100.00
64544;BME280;50936;51.660;5.616;2023-04-24T07:39:31;99931.31;;;7.83;100.00
64544;BME280;50936;51.660;5.616;2023-04-24T07:41:58;99939.69;;;7.78;100.00
64544;BME280;50936;51.660;5.616;2023-04-24T07:44:26;99957.88;;;7.75;100.00
64544;BME280;50936;51.660;5.616;2023-04-24T07:46:53;99950.16;;;7.70;100.00
64544;BME280;50936;51.660;5.616;2023-04-24T07:49:20;99966.59;;;7.65;100.00
64544;BME280;50936;51.660;5.616;2023-04-24T07:51:48;99970.25;;;7.64;100.00
64544;BME280;50936;51.660;5.616;2023-04-24T07:54:16;99974.78;;;7.64;100.00
64544;BME280;50936;51.660;5.616;2023-04-24T07:56:43;99989.28;;;7.61;100.00
64544;BME280;50936;51.660;5.616;2023-04-24T07:59:10;99988.53;;;7.59;100.00
64544;BME280;50936;51.660;5.616;2023-04-24T08:01:37;99997.34;;;7.61;100.00
64544;BME280;50936;51.660;5.616;2023-04-24T08:04:04;99998.34;;;7.60;100.00
64544;BME280;50936;51.660;5.616;2023-04-24T08:06:32;100011.44;;;7.65;100.00
64544;BME280;50936;51.660;5.616;2023-04-24T08:09:00;100015.59;;;7.69;100.00
64544;BME280;50936;51.660;5.616;2023-04-24T08:11:27;100016.25;;;7.72;100.00
64544;BME280;50936;51.660;5.616;2023-04-24T08:13:54;100023.38;;;7.74;100.00
64544;BME280;50936;51.660;5.616;2023-04-24T08:16:21;100031.31;;;7.75;100.00
64544;BME280;50936;51.660;5.616;2023-04-24T08:18:51;100033.91;;;7.77;100.00
64544;BME280;50936;51.660;5.616;2023-04-24T08:21:19;100046.38;;;7.78;100.00
64544;BME280;50936;51.660;5.616;2023-04-24T08:23:47;100051.53;;;7.81;100.00
64544;BME280;50936;51.660;5.616;2023-04-24T08:26:14;100064.88;;;7.82;100.00
64544;BME280;50936;51.660;5.616;2023-04-24T08:28:42;100071.09;;;7.83;100.00
64544;BME280;50936;51.660;5.616;2023-04-24T08:31:09;100076.28;;;7.86;100.00
64544;BME280;50936;51.660;5.616;2023-04-24T08:33:36;100097.00;;;7.84;100.00
64544;BME280;50936;51.660;5.616;2023-04-24T08:36:04;100094.31;;;7.84;100.00
64544;BME280;50936;51.660;5.616;2023-04-24T08:38:31;100091.50;;;7.72;100.00
64544;BME280;50936;51.660;5.616;2023-04-24T08:41:00;100093.25;;;7.61;100.00
64544;BME280;50936;51.660;5.616;2023-04-24T08:43:28;100105.47;;;7.52;100.00
64544;BME280;50936;51.660;5.616;2023-04-24T08:45:56;100109.34;;;7.48;100.00
64544;BME280;50936;51.660;5.616;2023-04-24T08:48:24;100115.56;;;7.48;100.00
64544;BME280;50936;51.660;5.616;2023-04-24T08:50:58;100109.16;;;7.51;100.00
64544;BME280;50936;51.660;5.616;2023-04-24T08:53:26;100124.94;;;7.56;100.00
64544;BME280;50936;51.660;5.616;2023-04-24T08:55:55;100128.47;;;7.56;100.00
64544;BME280;50936;51.660;5.616;2023-04-24T08:58:25;100122.91;;;7.59;100.00
64544;BME280;50936;51.660;5.616;2023-04-24T09:00:56;100133.44;;;7.62;100.00
64544;BME280;50936;51.660;5.616;2023-04-24T09:03:27;100137.66;;;7.66;100.00
64544;BME280;50936;51.660;5.616;2023-04-24T09:05:55;100143.56;;;7.71;100.00
64544;BME280;50936;51.660;5.616;2023-04-24T09:08:25;100140.78;;;7.73;100.00
64544;BME280;50936;51.660;5.616;2023-04-24T09:10:54;100143.13;;;7.78;100.00
64544;BME280;50936;51.660;5.616;2023-04-24T09:13:21;100149.16;;;7.81;100.00
64544;BME280;50936;51.660;5.616;2023-04-24T09:15:48;100160.78;;;7.82;100.00
64544;BME280;50936;51.660;5.616;2023-04-24T09:18:16;100165.28;;;7.81;100.00
64544;BME280;50936;51.660;5.616;2023-04-24T09:23:31;100169.38;;;7.87;100.00
64544;BME280;50936;51.660;5.616;2023-04-24T09:26:00;100171.66;;;7.93;100.00
64544;BME280;50936;51.660;5.616;2023-04-24T09:28:35;100184.25;;;8.05;100.00
64544;BME280;50936;51.660;5.616;2023-04-24T09:31:09;100183.19;;;8.21;100.00
64544;BME280;50936;51.660;5.616;2023-04-24T09:33:40;100188.22;;;8.38;100.00
64544;BME280;50936;51.660;5.616;2023-04-24T09:36:27;100191.38;;;8.58;100.00
64544;BME280;50936;51.660;5.616;2023-04-24T09:39:01;100190.03;;;8.76;100.00
64544;BME280;50936;51.660;5.616;2023-04-24T09:41:28;100201.44;;;8.93;100.00
64544;BME280;50936;51.660;5.616;2023-04-24T09:43:55;100211.31;;;9.05;100.00
64544;BME280;50936;51.660;5.616;2023-04-24T09:46:30;100216.78;;;9.16;100.00
64544;BME280;50936;51.660;5.616;2023-04-24T09:49:08;100219.22;;;9.19;100.00
64544;BME280;50936;51.660;5.616;2023-04-24T09:51:38;100228.94;;;9.22;100.00
64544;BME280;50936;51.660;5.616;2023-04-24T09:54:13;100235.16;;;9.22;100.00
64544;BME280;50936;51.660;5.616;2023-04-24T09:56:45;100241.03;;;9.16;100.00
64544;BME280;50936;51.660;5.616;2023-04-24T09:59:15;100236.06;;;9.10;100.00
64544;BME280;50936;51.660;5.616;2023-04-24T10:01:43;100240.94;;;9.05;100.00
64544;BME280;50936;51.660;5.616;2023-04-24T10:04:25;100245.81;;;9.00;100.00
64544;BME280;50936;51.660;5.616;2023-04-24T10:06:55;100250.44;;;8.98;100.00
64544;BME280;50936;51.660;5.616;2023-04-24T10:09:25;100252.38;;;8.96;100.00
64544;BME280;50936;51.660;5.616;2023-04-24T10:11:54;100258.94;;;8.92;100.00
64544;BME280;50936;51.660;5.616;2023-04-24T10:14:24;100263.81;;;8.86;100.00
64544;BME280;50936;51.660;5.616;2023-04-24T10:16:55;100263.28;;;8.81;100.00
64544;BME280;50936;51.660;5.616;2023-04-24T10:19:26;100254.66;;;8.76;100.00
64544;BME280;50936;51.660;5.616;2023-04-24T10:21:53;100256.38;;;8.77;100.00
64544;BME280;50936;51.660;5.616;2023-04-24T10:24:22;100266.94;;;8.80;100.00
64544;BME280;50936;51.660;5.616;2023-04-24T10:26:49;100264.78;;;8.85;100.00
64544;BME280;50936;51.660;5.616;2023-04-24T10:29:18;100270.47;;;8.94;100.00
64544;BME280;50936;51.660;5.616;2023-04-24T10:31:45;100268.19;;;9.00;100.00
64544;BME280;50936;51.660;5.616;2023-04-24T10:34:15;100281.34;;;9.05;100.00
64544;BME280;50936;51.660;5.616;2023-04-24T10:36:51;100290.19;;;9.07;100.00
64544;BME280;50936;51.660;5.616;2023-04-24T10:39:23;100287.16;;;8.99;100.00
64544;BME280;50936;51.660;5.616;2023-04-24T10:41:54;100287.59;;;8.93;100.00
64544;BME280;50936;51.660;5.616;2023-04-24T10:44:24;100285.38;;;8.86;100.00
64544;BME280;50936;51.660;5.616;2023-04-24T10:46:55;100285.78;;;8.80;100.00
64544;BME280;50936;51.660;5.616;2023-04-24T10:49:30;100305.72;;;8.78;100.00
64544;BME280;50936;51.660;5.616;2023-04-24T10:52:02;100312.41;;;8.72;100.00
64544;BME280;50936;51.660;5.616;2023-04-24T10:59:52;100313.56;;;8.94;100.00
64544;BME280;50936;51.660;5.616;2023-04-24T11:02:41;100309.75;;;9.22;100.00
64544;BME280;50936;51.660;5.616;2023-04-24T11:05:16;100321.53;;;9.45;100.00
64544;BME280;50936;51.660;5.616;2023-04-24T11:10:56;100319.06;;;9.79;100.00
64544;BME280;50936;51.660;5.616;2023-04-24T11:13:28;100328.38;;;9.75;100.00
64544;BME280;50936;51.660;5.616;2023-04-24T11:19:01;100328.13;;;9.78;100.00
64544;BME280;50936;51.660;5.616;2023-04-24T11:21:49;100345.34;;;9.88;100.00
64544;BME280;50936;51.660;5.616;2023-04-24T11:24:39;100338.84;;;9.91;100.00
64544;BME280;50936;51.660;5.616;2023-04-24T11:27:22;100339.25;;;9.97;100.00
64544;BME280;50936;51.660;5.616;2023-04-24T11:30:02;100341.00;;;9.98;100.00
64544;BME280;50936;51.660;5.616;2023-04-24T11:32:38;100337.56;;;9.96;100.00
64544;BME280;50936;51.660;5.616;2023-04-24T11:37:46;100350.00;;;9.86;100.00
64544;BME280;50936;51.660;5.616;2023-04-24T11:40:20;100357.72;;;9.91;100.00
64544;BME280;50936;51.660;5.616;2023-04-24T11:42:53;100364.97;;;9.90;100.00
64544;BME280;50936;51.660;5.616;2023-04-24T11:45:25;100375.19;;;9.74;100.00
64544;BME280;50936;51.660;5.616;2023-04-24T11:47:54;100372.63;;;9.59;100.00
64544;BME280;50936;51.660;5.616;2023-04-24T11:50:25;100382.38;;;9.49;100.00
64544;BME280;50936;51.660;5.616;2023-04-24T11:52:54;100384.09;;;9.37;100.00
64544;BME280;50936;51.660;5.616;2023-04-24T11:57:58;100389.59;;;9.23;100.00
64544;BME280;50936;51.660;5.616;2023-04-24T12:00:31;100391.44;;;9.22;100.00
64544;BME280;50936;51.660;5.616;2023-04-24T12:03:09;100394.91;;;9.24;100.00
64544;BME280;50936;51.660;5.616;2023-04-24T12:05:39;100401.81;;;9.29;100.00
64544;BME280;50936;51.660;5.616;2023-04-24T12:08:06;100390.78;;;9.32;100.00
64544;BME280;50936;51.660;5.616;2023-04-24T12:10:34;100403.31;;;9.33;100.00
64544;BME280;50936;51.660;5.616;2023-04-24T12:13:01;100413.44;;;9.42;100.00
64544;BME280;50936;51.660;5.616;2023-04-24T12:15:29;100404.56;;;9.66;100.00
64544;BME280;50936;51.660;5.616;2023-04-24T12:17:56;100418.03;;;10.02;100.00
64544;BME280;50936;51.660;5.616;2023-04-24T12:20:29;100416.63;;;10.34;100.00
64544;BME280;50936;51.660;5.616;2023-04-24T12:22:59;100420.75;;;10.51;100.00
64544;BME280;50936;51.660;5.616;2023-04-24T12:25:29;100418.03;;;10.51;100.00
64544;BME280;50936;51.660;5.616;2023-04-24T12:30:33;100413.19;;;10.67;100.00
64544;BME280;50936;51.660;5.616;2023-04-24T12:33:02;100423.41;;;10.75;100.00
64544;BME280;50936;51.660;5.616;2023-04-24T12:35:31;100423.28;;;10.76;100.00
64544;BME280;50936;51.660;5.616;2023-04-24T12:38:08;100430.34;;;10.55;100.00
64544;BME280;50936;51.660;5.616;2023-04-24T12:40:41;100419.44;;;10.32;100.00
64544;BME280;50936;51.660;5.616;2023-04-24T12:45:42;100438.47;;;9.81;100.00
64544;BME280;50936;51.660;5.616;2023-04-24T12:48:11;100437.78;;;9.53;100.00
64544;BME280;50936;51.660;5.616;2023-04-24T12:50:40;100450.94;;;9.19;100.00
64544;BME280;50936;51.660;5.616;2023-04-24T12:53:11;100449.84;;;8.96;100.00
64544;BME280;50936;51.660;5.616;2023-04-24T12:55:38;100450.41;;;8.89;100.00
64544;BME280;50936;51.660;5.616;2023-04-24T12:58:07;100455.22;;;8.83;100.00
64544;BME280;50936;51.660;5.616;2023-04-24T13:00:34;100448.53;;;8.76;100.00
64544;BME280;50936;51.660;5.616;2023-04-24T13:03:01;100461.88;;;8.65;100.00
64544;BME280;50936;51.660;5.616;2023-04-24T13:05:30;100475.72;;;8.59;100.00
64544;BME280;50936;51.660;5.616;2023-04-24T13:07:57;100475.72;;;8.59;100.00
64544;BME280;50936;51.660;5.616;2023-04-24T13:10:24;100477.41;;;8.74;100.00
64544;BME280;50936;51.660;5.616;2023-04-24T13:12:51;100483.38;;;9.05;100.00
64544;BME280;50936;51.660;5.616;2023-04-24T13:15:19;100470.59;;;9.21;100.00
64544;BME280;50936;51.660;5.616;2023-04-24T13:17:45;100474.22;;;9.33;100.00
64544;BME280;50936;51.660;5.616;2023-04-24T13:20:12;100476.16;;;9.57;100.00
64544;BME280;50936;51.660;5.616;2023-04-24T13:22:39;100481.44;;;10.21;100.00
64544;BME280;50936;51.660;5.616;2023-04-24T13:25:06;100481.19;;;10.61;100.00
64544;BME280;50936;51.660;5.616;2023-04-24T13:27:33;100476.66;;;10.97;100.00
64544;BME280;50936;51.660;5.616;2023-04-24T13:30:00;100471.47;;;11.41;100.00
64544;BME280;50936;51.660;5.616;2023-04-24T13:32:27;100476.28;;;11.60;100.00